createdAt,value
2022-09-27T00:01:02.214Z,0.50
2022-09-27T00:03:30.400Z,0.50
2022-09-27T00:06:05.896Z,0.50
2022-09-27T00:11:10.330Z,0.70
2022-09-27T00:13:37.201Z,0.50
2022-09-27T00:16:07.508Z,0.60
2022-09-27T00:18:34.726Z,0.90
2022-09-27T00:21:07.364Z,0.50
2022-09-27T00:23:34.868Z,0.70
2022-09-27T00:26:04.849Z,0.50
2022-09-27T00:28:32.323Z,0.50
2022-09-27T00:30:59.868Z,0.50
2022-09-27T00:33:27.542Z,0.40
2022-09-27T00:35:55.049Z,0.77
2022-09-27T00:38:22.167Z,0.40
2022-09-27T00:40:49.306Z,0.85
2022-09-27T00:43:23.147Z,0.57
2022-09-27T00:46:01.742Z,0.50
2022-09-27T00:48:31.323Z,0.50
2022-09-27T00:51:01.691Z,0.50
2022-09-27T00:53:33.969Z,0.60
2022-09-27T00:56:11.708Z,0.60
2022-09-27T00:58:45.226Z,0.40
2022-09-27T01:01:14.180Z,0.47
2022-09-27T01:03:51.754Z,0.70
2022-09-27T01:06:21.424Z,0.43
2022-09-27T01:11:27.461Z,0.57
2022-09-27T01:14:06.163Z,0.40
2022-09-27T01:17:06.217Z,0.40
2022-09-27T01:19:58.006Z,0.30
2022-09-27T01:23:02.833Z,0.57
2022-09-27T01:25:48.675Z,0.70
2022-09-27T01:28:57.178Z,0.60
2022-09-27T01:31:48.155Z,0.50
2022-09-27T01:34:40.044Z,0.47
2022-09-27T01:37:19.530Z,0.63
2022-09-27T01:40:11.660Z,0.35
2022-09-27T01:43:08.498Z,0.70
2022-09-27T01:45:43.973Z,0.68
2022-09-27T01:48:26.082Z,0.55
2022-09-27T01:51:07.440Z,0.50
2022-09-27T01:53:39.603Z,0.52
2022-09-27T01:56:45.823Z,0.50
2022-09-27T01:59:28.434Z,0.50
2022-09-27T02:02:17.355Z,0.43
2022-09-27T02:05:29.514Z,0.70
2022-09-27T02:08:07.970Z,1.25
2022-09-27T02:10:40.996Z,0.52
2022-09-27T02:13:21.845Z,0.52
2022-09-27T02:16:08.684Z,0.60
2022-09-27T02:18:55.175Z,0.50
2022-09-27T02:21:25.997Z,0.63
2022-09-27T02:23:58.202Z,0.73
2022-09-27T02:26:41.219Z,0.82
2022-09-27T02:29:19.469Z,0.70
2022-09-27T02:31:51.256Z,0.68
2022-09-27T02:34:29.333Z,0.75
2022-09-27T02:36:56.242Z,0.63
2022-09-27T02:39:24.209Z,0.68
2022-09-27T02:42:00.262Z,0.60
2022-09-27T02:44:27.965Z,0.80
2022-09-27T02:47:12.788Z,0.80
2022-09-27T02:49:48.916Z,0.52
2022-09-27T02:53:08.048Z,0.77
2022-09-27T02:56:00.909Z,0.70
2022-09-27T02:59:19.097Z,0.80
2022-09-27T03:02:20.124Z,0.60
2022-09-27T03:05:17.374Z,0.80
2022-09-27T03:07:44.888Z,0.65
2022-09-27T03:10:28.291Z,0.85
2022-09-27T03:12:56.833Z,0.70
2022-09-27T03:15:24.327Z,0.93
2022-09-27T03:18:01.030Z,1.20
2022-09-27T03:20:31.496Z,0.88
2022-09-27T03:23:12.123Z,0.80
2022-09-27T03:25:39.110Z,0.90
2022-09-27T03:28:06.728Z,0.70
2022-09-27T03:30:34.362Z,0.75
2022-09-27T03:33:01.374Z,1.10
2022-09-27T03:35:46.609Z,0.90
2022-09-27T03:38:14.253Z,1.27
2022-09-27T03:40:41.524Z,0.95
2022-09-27T03:43:09.688Z,0.88
2022-09-27T03:45:37.161Z,1.00
2022-09-27T03:48:09.957Z,0.90
2022-09-27T03:50:37.079Z,0.90
2022-09-27T03:53:04.494Z,0.85
2022-09-27T03:55:31.378Z,0.85
2022-09-27T03:57:58.250Z,0.93
2022-09-27T04:00:25.263Z,0.90
2022-09-27T04:02:52.355Z,0.70
2022-09-27T04:05:22.089Z,1.10
2022-09-27T04:07:49.614Z,0.85
2022-09-27T04:10:18.206Z,1.00
2022-09-27T04:12:48.273Z,1.85
2022-09-27T04:15:15.402Z,0.82
2022-09-27T04:17:51.633Z,0.85
2022-09-27T04:20:36.842Z,0.82
2022-09-27T04:23:14.517Z,1.15
2022-09-27T04:25:48.819Z,0.80
2022-09-27T04:28:21.212Z,0.80
2022-09-27T04:30:49.104Z,0.85
2022-09-27T04:33:34.513Z,0.70
2022-09-27T04:36:29.338Z,0.80
2022-09-27T04:39:16.808Z,1.00
2022-09-27T04:41:45.513Z,0.93
2022-09-27T04:44:13.445Z,1.10
2022-09-27T04:46:44.199Z,0.90
2022-09-27T04:49:12.146Z,1.10
2022-09-27T04:51:39.706Z,0.90
2022-09-27T04:54:06.611Z,0.80
2022-09-27T04:56:37.512Z,0.80
2022-09-27T04:59:09.974Z,1.00
2022-09-27T05:01:39.078Z,1.25
2022-09-27T05:04:05.897Z,1.10
2022-09-27T05:06:34.854Z,0.70
2022-09-27T05:09:07.696Z,1.05
2022-09-27T05:11:45.512Z,1.10
2022-09-27T05:14:30.856Z,1.10
2022-09-27T05:17:11.637Z,0.90
2022-09-27T05:20:09.831Z,0.90
2022-09-27T05:22:43.901Z,0.90
2022-09-27T05:25:11.410Z,0.75
2022-09-27T05:27:38.699Z,1.10
2022-09-27T05:30:08.332Z,0.90
2022-09-27T05:32:44.168Z,1.05
2022-09-27T05:35:26.742Z,1.08
2022-09-27T05:37:57.581Z,1.20
2022-09-27T05:40:40.868Z,3.05
2022-09-27T05:43:08.117Z,2.63
2022-09-27T05:45:38.377Z,1.95
2022-09-27T05:48:06.878Z,1.80
2022-09-27T05:50:40.190Z,1.40
2022-09-27T05:53:07.236Z,1.35
2022-09-27T05:55:34.522Z,1.08
2022-09-27T05:58:03.917Z,1.50
2022-09-27T06:00:39.948Z,1.08
2022-09-27T06:03:26.729Z,1.27
2022-09-27T06:06:25.645Z,1.23
2022-09-27T06:08:56.389Z,1.00
2022-09-27T06:11:27.586Z,1.17
2022-09-27T06:13:57.257Z,1.17
2022-09-27T06:16:25.276Z,1.00
2022-09-27T06:18:52.372Z,1.33
2022-09-27T06:21:21.861Z,1.00
2022-09-27T06:26:33.702Z,1.17
2022-09-27T06:29:26.796Z,1.30
2022-09-27T06:32:00.763Z,1.15
2022-09-27T06:34:41.840Z,1.20
2022-09-27T06:37:08.690Z,0.90
2022-09-27T06:39:35.582Z,1.10
2022-09-27T06:42:22.573Z,1.25
2022-09-27T06:45:06.229Z,1.00
2022-09-27T06:48:02.544Z,0.90
2022-09-27T06:50:41.767Z,0.77
2022-09-27T06:53:13.281Z,0.80
2022-09-27T06:55:41.245Z,0.70
2022-09-27T06:58:28.446Z,0.90
2022-09-27T07:01:14.810Z,0.93
2022-09-27T07:04:00.246Z,0.95
2022-09-27T07:06:45.614Z,0.90
2022-09-27T07:09:20.986Z,0.70
2022-09-27T07:11:48.426Z,0.88
2022-09-27T07:14:16.413Z,0.60
2022-09-27T07:16:45.422Z,0.90
2022-09-27T07:19:14.378Z,0.75
2022-09-27T07:21:41.663Z,0.73
2022-09-27T07:24:08.659Z,0.77
2022-09-27T07:26:35.645Z,0.70
2022-09-27T07:29:04.875Z,0.80
2022-09-27T07:31:31.939Z,0.45
2022-09-27T07:33:59.013Z,0.60
2022-09-27T07:36:26.070Z,0.77
2022-09-27T07:38:53.312Z,0.57
2022-09-27T07:41:20.713Z,1.42
2022-09-27T07:43:47.702Z,0.85
2022-09-27T07:46:15.247Z,1.02
2022-09-27T07:48:56.825Z,0.80
2022-09-27T07:51:48.488Z,0.82
2022-09-27T07:54:29.988Z,1.23
2022-09-27T07:57:05.948Z,0.80
2022-09-27T07:59:39.355Z,1.10
2022-09-27T08:02:11.287Z,0.80
2022-09-27T08:04:38.207Z,0.90
2022-09-27T08:07:05.093Z,0.95
2022-09-27T08:09:32.198Z,1.10
2022-09-27T08:11:59.156Z,0.88
2022-09-27T08:14:26.210Z,1.20
2022-09-27T08:16:56.174Z,0.93
2022-09-27T08:22:14.541Z,1.13
2022-09-27T08:24:47.910Z,1.20
2022-09-27T08:27:22.698Z,1.10
2022-09-27T08:29:52.855Z,1.40
2022-09-27T08:32:23.263Z,1.25
2022-09-27T08:34:51.199Z,1.30
2022-09-27T08:37:20.656Z,1.88
2022-09-27T08:39:48.602Z,1.60
2022-09-27T08:42:44.402Z,1.30
2022-09-27T08:45:14.075Z,1.20
2022-09-27T08:47:46.064Z,1.48
2022-09-27T08:50:39.796Z,1.17
2022-09-27T08:53:33.447Z,1.27
2022-09-27T08:56:03.905Z,1.00
2022-09-27T08:58:54.905Z,1.10
2022-09-27T09:01:28.871Z,1.00
2022-09-27T09:04:29.878Z,1.00
2022-09-27T09:07:08.603Z,0.80
2022-09-27T09:09:51.426Z,1.15
2022-09-27T09:12:53.382Z,1.20
2022-09-27T09:16:03.195Z,1.02
2022-09-27T09:18:44.348Z,1.10
2022-09-27T09:21:44.803Z,0.90
2022-09-27T09:24:31.491Z,0.70
2022-09-27T09:27:05.830Z,0.70
2022-09-27T09:30:10.756Z,0.70
2022-09-27T09:33:08.847Z,0.70
2022-09-27T09:35:41.605Z,0.60
2022-09-27T09:38:18.819Z,0.80
2022-09-27T09:41:18.031Z,0.57
2022-09-27T09:44:02.059Z,0.68
2022-09-27T09:46:46.532Z,0.73
2022-09-27T09:49:30.023Z,0.70
2022-09-27T09:52:08.031Z,0.80
2022-09-27T09:54:46.773Z,0.68
2022-09-27T09:57:22.069Z,0.52
2022-09-27T10:00:04.835Z,0.85
2022-09-27T10:02:44.619Z,0.70
2022-09-27T10:05:19.852Z,0.50
2022-09-27T10:07:51.340Z,0.52
2022-09-27T10:10:20.657Z,0.65
2022-09-27T10:12:53.707Z,0.60
2022-09-27T10:15:28.225Z,0.50
2022-09-27T10:17:58.333Z,0.50
2022-09-27T10:20:35.869Z,0.40
2022-09-27T10:23:16.859Z,0.55
2022-09-27T10:26:05.024Z,0.60
2022-09-27T10:28:39.608Z,0.65
2022-09-27T10:33:59.670Z,0.38
2022-09-27T10:36:32.878Z,0.63
2022-09-27T10:39:04.371Z,0.70
2022-09-27T10:41:41.516Z,0.77
2022-09-27T10:44:35.953Z,0.75
2022-09-27T10:47:19.721Z,0.70
2022-09-27T10:50:49.674Z,0.50
2022-09-27T10:53:22.612Z,0.70
2022-09-27T10:55:59.330Z,0.60
2022-09-27T10:58:32.782Z,0.60
2022-09-27T11:01:03.558Z,0.70
2022-09-27T11:03:46.534Z,0.88
2022-09-27T11:06:22.473Z,0.60
2022-09-27T11:08:52.114Z,0.68
2022-09-27T11:11:28.347Z,0.60
2022-09-27T11:14:03.888Z,0.90
2022-09-27T11:16:58.225Z,1.13
2022-09-27T11:20:04.671Z,1.20
2022-09-27T11:23:03.483Z,0.60
2022-09-27T11:25:39.714Z,0.90
2022-09-27T11:28:27.533Z,0.85
2022-09-27T11:30:54.736Z,0.63
2022-09-27T11:34:18.698Z,0.80
2022-09-27T11:37:10.746Z,0.70
2022-09-27T11:40:05.961Z,0.73
2022-09-27T11:42:59.671Z,2.10
2022-09-27T11:49:33.676Z,1.65
2022-09-27T11:52:18.752Z,1.48
2022-09-27T11:55:10.923Z,1.20
2022-09-27T11:58:06.313Z,1.20
2022-09-27T12:01:13.228Z,0.88
2022-09-27T12:03:47.813Z,0.98
2022-09-27T12:06:36.250Z,0.90
2022-09-27T12:09:20.485Z,0.80
2022-09-27T12:11:54.536Z,0.70
2022-09-27T12:14:30.175Z,0.60
2022-09-27T12:16:59.824Z,0.63
2022-09-27T12:19:35.937Z,0.80
2022-09-27T12:22:16.569Z,0.73
2022-09-27T12:24:46.782Z,0.65
2022-09-27T12:27:46.619Z,0.70
2022-09-27T12:30:18.745Z,0.80
2022-09-27T12:33:09.211Z,0.60
2022-09-27T12:35:44.387Z,0.75
2022-09-27T12:38:15.899Z,0.95
2022-09-27T12:40:51.513Z,0.80
2022-09-27T12:43:27.902Z,0.80
2022-09-27T12:46:23.135Z,1.17
2022-09-27T12:49:00.332Z,0.85
2022-09-27T12:51:37.655Z,0.85
2022-09-27T12:54:24.273Z,0.73
2022-09-27T12:57:02.534Z,0.98
2022-09-27T13:00:00.532Z,0.60
2022-09-27T13:02:41.456Z,0.73
2022-09-27T13:05:18.218Z,0.80
2022-09-27T13:08:14.233Z,0.88
2022-09-27T13:10:59.365Z,0.57
2022-09-27T13:13:36.293Z,0.77
2022-09-27T13:16:06.305Z,0.60
2022-09-27T13:19:01.896Z,1.00
2022-09-27T13:21:55.333Z,0.68
2022-09-27T13:24:47.212Z,0.70
2022-09-27T13:27:29.410Z,0.70
2022-09-27T13:30:13.086Z,0.60
2022-09-27T13:33:14.149Z,0.90
2022-09-27T13:38:37.456Z,0.73
2022-09-27T13:41:19.543Z,0.77
2022-09-27T13:44:09.674Z,0.70
2022-09-27T13:46:53.465Z,0.88
2022-09-27T13:49:33.683Z,0.93
2022-09-27T13:52:22.080Z,0.80
2022-09-27T13:55:04.239Z,1.08
2022-09-27T13:57:38.130Z,0.90
2022-09-27T14:00:11.075Z,1.13
2022-09-27T14:03:17.222Z,0.82
2022-09-27T14:05:58.360Z,0.90
2022-09-27T14:08:46.205Z,1.00
2022-09-27T14:11:18.757Z,0.85
2022-09-27T14:13:49.288Z,1.05
2022-09-27T14:16:20.908Z,1.02
2022-09-27T14:18:58.403Z,0.90
2022-09-27T14:21:37.830Z,0.80
2022-09-27T14:24:35.904Z,0.75
2022-09-27T14:27:23.002Z,0.80
2022-09-27T14:30:01.743Z,0.70
2022-09-27T14:32:34.569Z,0.90
2022-09-27T14:35:42.133Z,0.90
2022-09-27T14:38:35.790Z,0.80
2022-09-27T14:41:07.294Z,1.00
2022-09-27T14:43:36.055Z,0.82
2022-09-27T14:46:07.537Z,0.90
2022-09-27T14:48:37.201Z,1.30
2022-09-27T14:51:14.417Z,1.10
2022-09-27T14:54:00.661Z,1.20
2022-09-27T14:56:34.480Z,0.90
2022-09-27T14:59:09.068Z,0.90
2022-09-27T15:01:38.200Z,1.00
2022-09-27T15:04:08.293Z,1.10
2022-09-27T15:06:38.892Z,1.00
2022-09-27T15:09:10.230Z,0.95
2022-09-27T15:11:39.392Z,0.90
2022-09-27T15:14:07.796Z,1.00
2022-09-27T15:16:34.873Z,0.88
2022-09-27T15:19:07.115Z,0.90
2022-09-27T15:21:36.637Z,1.00
2022-09-27T15:24:05.302Z,1.00
2022-09-27T15:26:42.347Z,0.80
2022-09-27T15:29:20.296Z,1.23
2022-09-27T15:32:00.316Z,0.93
2022-09-27T15:34:27.829Z,0.80
2022-09-27T15:37:03.654Z,0.85
2022-09-27T15:39:38.234Z,0.98
2022-09-27T15:42:14.700Z,0.90
2022-09-27T15:44:50.384Z,0.95
2022-09-27T15:47:34.329Z,1.08
2022-09-27T15:50:16.570Z,0.93
2022-09-27T15:52:47.244Z,1.25
2022-09-27T15:55:14.935Z,0.90
2022-09-27T15:57:42.569Z,1.00
2022-09-27T16:00:18.079Z,1.38
2022-09-27T16:02:45.646Z,1.13
2022-09-27T16:05:13.428Z,1.38
2022-09-27T16:07:40.250Z,1.42
2022-09-27T16:10:18.360Z,1.00
2022-09-27T16:12:48.314Z,1.40
2022-09-27T16:15:15.676Z,1.27
2022-09-27T16:17:43.606Z,1.60
2022-09-27T16:20:25.026Z,1.30
2022-09-27T16:22:52.855Z,1.42
2022-09-27T16:25:22.101Z,1.35
2022-09-27T16:27:49.571Z,1.50
2022-09-27T16:30:17.822Z,1.60
2022-09-27T16:32:47.060Z,1.33
2022-09-27T16:35:15.887Z,1.55
2022-09-27T16:37:43.185Z,1.42
2022-09-27T16:40:11.308Z,1.40
2022-09-27T16:42:38.476Z,1.40
2022-09-27T16:45:10.567Z,1.30
2022-09-27T16:47:39.651Z,1.40
2022-09-27T16:50:25.421Z,1.20
2022-09-27T16:52:53.499Z,1.30
2022-09-27T16:55:21.185Z,1.40
2022-09-27T16:57:49.149Z,1.40
2022-09-27T17:00:16.812Z,1.77
2022-09-27T17:02:47.217Z,1.35
2022-09-27T17:05:15.521Z,1.77
2022-09-27T17:07:42.779Z,2.00
2022-09-27T17:10:09.836Z,2.10
2022-09-27T17:12:39.460Z,2.30
2022-09-27T17:15:06.891Z,1.85
2022-09-27T17:17:33.834Z,1.98
2022-09-27T17:20:00.970Z,2.05
2022-09-27T17:22:27.815Z,1.50
2022-09-27T17:24:54.725Z,1.73
2022-09-27T17:27:25.782Z,1.80
2022-09-27T17:29:53.265Z,1.60
2022-09-27T17:32:22.407Z,2.13
2022-09-27T17:37:16.165Z,1.95
2022-09-27T17:39:43.005Z,2.03
2022-09-27T17:42:09.869Z,2.00
2022-09-27T17:44:37.612Z,2.10
2022-09-27T17:47:23.699Z,2.20
2022-09-27T17:50:08.905Z,1.95
2022-09-27T17:52:35.761Z,1.98
2022-09-27T17:55:03.414Z,2.40
2022-09-27T17:57:30.356Z,2.08
2022-09-27T17:59:58.045Z,2.30
2022-09-27T18:02:25.765Z,1.98
2022-09-27T18:04:52.704Z,2.35
2022-09-27T18:07:19.939Z,2.17
2022-09-27T18:09:47.027Z,1.90
2022-09-27T18:12:14.558Z,2.05
2022-09-27T18:14:42.301Z,2.17
2022-09-27T18:17:13.240Z,1.88
2022-09-27T18:19:40.295Z,1.80
2022-09-27T18:22:07.321Z,2.13
2022-09-27T18:24:35.408Z,1.80
2022-09-27T18:27:03.394Z,1.70
2022-09-27T18:29:30.315Z,2.30
2022-09-27T18:31:57.353Z,2.30
2022-09-27T18:34:25.265Z,2.03
2022-09-27T18:36:52.159Z,1.83
2022-09-27T18:39:19.640Z,2.08
2022-09-27T18:41:50.047Z,2.42
2022-09-27T18:44:18.499Z,2.10
2022-09-27T18:46:46.106Z,2.22
2022-09-27T18:49:14.532Z,2.25
2022-09-27T18:51:44.655Z,1.70
2022-09-27T18:54:18.275Z,2.08
2022-09-27T18:56:45.921Z,2.35
2022-09-27T18:59:13.193Z,2.10
2022-09-27T19:01:43.942Z,2.10
2022-09-27T19:04:14.026Z,2.30
2022-09-27T19:06:41.039Z,2.50
2022-09-27T19:09:09.101Z,2.60
2022-09-27T19:11:36.034Z,2.50
2022-09-27T19:14:03.073Z,2.97
2022-09-27T19:16:30.549Z,2.67
2022-09-27T19:18:57.672Z,2.53
2022-09-27T19:21:27.250Z,2.70
2022-09-27T19:23:54.706Z,2.20
2022-09-27T19:26:24.639Z,2.67
2022-09-27T19:28:51.693Z,2.55
2022-09-27T19:31:24.276Z,2.85
2022-09-27T19:33:56.181Z,2.92
2022-09-27T19:36:26.238Z,2.58
2022-09-27T19:38:53.598Z,2.70
2022-09-27T19:41:20.588Z,2.88
2022-09-27T19:43:52.004Z,2.92
2022-09-27T19:46:19.943Z,2.75
2022-09-27T19:48:48.064Z,2.80
2022-09-27T19:51:23.195Z,3.08
2022-09-27T19:53:50.891Z,2.78
2022-09-27T19:56:18.246Z,2.70
2022-09-27T19:58:45.748Z,2.97
2022-09-27T20:01:21.501Z,3.20
2022-09-27T20:03:50.201Z,3.33
2022-09-27T20:06:19.024Z,3.05
2022-09-27T20:08:47.805Z,3.45
2022-09-27T20:11:19.950Z,3.13
2022-09-27T20:13:47.201Z,3.80
2022-09-27T20:16:16.791Z,3.25
2022-09-27T20:18:46.200Z,3.22
2022-09-27T20:21:14.310Z,3.42
2022-09-27T20:23:41.334Z,4.00
2022-09-27T20:26:10.274Z,3.65
2022-09-27T20:28:42.048Z,3.58
2022-09-27T20:31:10.145Z,3.33
2022-09-27T20:33:43.847Z,3.75
2022-09-27T20:36:20.997Z,3.38
2022-09-27T20:38:56.088Z,3.55
2022-09-27T20:41:25.994Z,3.67
2022-09-27T20:43:55.230Z,3.50
2022-09-27T20:46:23.661Z,3.72
2022-09-27T20:48:59.064Z,3.72
2022-09-27T20:51:27.457Z,3.63
2022-09-27T20:53:55.173Z,3.45
2022-09-27T20:56:29.146Z,3.78
2022-09-27T20:58:57.129Z,3.50
2022-09-27T21:01:26.192Z,3.72
2022-09-27T21:03:55.098Z,3.58
2022-09-27T21:06:25.263Z,3.45
2022-09-27T21:08:52.141Z,3.30
2022-09-27T21:11:20.188Z,3.47
2022-09-27T21:13:48.256Z,3.35
2022-09-27T21:16:17.867Z,3.20
2022-09-27T21:18:44.910Z,3.55
2022-09-27T21:21:14.212Z,3.50
2022-09-27T21:23:44.867Z,4.05
2022-09-27T21:26:18.896Z,3.85
2022-09-27T21:28:54.766Z,4.10
2022-09-27T21:31:24.499Z,4.10
2022-09-27T21:33:54.211Z,4.03
2022-09-27T21:36:23.335Z,4.63
2022-09-27T21:41:18.126Z,3.83
2022-09-27T21:43:48.938Z,4.28
2022-09-27T21:46:20.300Z,4.03
2022-09-27T21:48:49.250Z,3.92
2022-09-27T21:51:24.992Z,3.53
2022-09-27T21:54:02.582Z,3.92
2022-09-27T21:56:31.977Z,3.58
2022-09-27T21:58:59.179Z,4.07
2022-09-27T22:01:29.727Z,3.80
2022-09-27T22:03:57.504Z,3.70
2022-09-27T22:06:28.523Z,3.60
2022-09-27T22:08:56.672Z,3.47
2022-09-27T22:11:26.577Z,3.40
2022-09-27T22:13:53.452Z,3.30
2022-09-27T22:16:21.579Z,3.53
2022-09-27T22:18:51.792Z,3.65
2022-09-27T22:21:22.035Z,3.25
2022-09-27T22:23:56.762Z,3.30
2022-09-27T22:26:26.747Z,3.20
2022-09-27T22:28:54.480Z,3.10
2022-09-27T22:31:22.468Z,3.13
2022-09-27T22:33:57.978Z,3.03
2022-09-27T22:36:25.678Z,2.95
2022-09-27T22:38:53.823Z,2.60
2022-09-27T22:41:21.172Z,2.80
2022-09-27T22:43:48.010Z,2.72
2022-09-27T22:46:15.770Z,2.88
2022-09-27T22:48:42.864Z,2.97
2022-09-27T22:51:09.755Z,2.70
2022-09-27T22:53:37.739Z,2.40
2022-09-27T22:56:07.965Z,2.80
2022-09-27T22:58:35.914Z,2.80
2022-09-27T23:01:11.427Z,2.42
2022-09-27T23:03:38.498Z,2.47
2022-09-27T23:06:07.319Z,2.55
2022-09-27T23:08:35.743Z,2.70
2022-09-27T23:11:07.852Z,2.78
2022-09-27T23:13:37.607Z,2.50
2022-09-27T23:16:07.448Z,2.80
2022-09-27T23:18:35.268Z,2.72
2022-09-27T23:21:06.813Z,2.35
2022-09-27T23:23:35.655Z,2.45
2022-09-27T23:26:05.030Z,2.40
2022-09-27T23:28:33.230Z,2.55
2022-09-27T23:31:15.370Z,2.25
2022-09-27T23:33:45.057Z,2.38
2022-09-27T23:36:21.001Z,2.45
2022-09-27T23:38:48.666Z,2.40
2022-09-27T23:41:16.769Z,2.45
2022-09-27T23:43:44.532Z,2.25
2022-09-27T23:46:12.438Z,2.60
2022-09-27T23:48:40.014Z,2.60
2022-09-27T23:51:10.091Z,2.75
2022-09-27T23:53:38.435Z,2.58
2022-09-27T23:56:12.843Z,2.90
2022-09-27T23:58:42.473Z,2.78
